This demonstration page uses our WeatherBlox Daily Observations layout. Learn more.

36.17497, -115.13722

Hourly Observations for February 25, 2015

Temp ( °F °C ) Dew Point ( °F °C ) Humidity (%) Winds ( mph kmh ) Pressure ( in mb ) Visibility ( mi km ) Precip ( " mm )
12:53 am 00:53 Clear 45 7.2 27 -2.8 49 49 NNW 3 6 30.2 1023 10 16.0934 0 0
1:53 am 01:53 Clear 45 7.2 26 -3.3 48 48 NNW 6 9 30.18 1022 10 16.0934 0 0
2:53 am 02:53 Clear 44 6.7 26 -3.3 49 49 Calm 30.17 1022 10 16.0934 0 0
3:53 am 03:53 Clear 42 5.6 27 -2.8 55 55 WNW 3 6 30.18 1022 10 16.0934 0 0
4:53 am 04:53 Clear 44 6.7 23 -5 43 43 NNW 5 7 30.18 1022 10 16.0934 0 0
5:53 am 05:53 Clear 41 5 25 -3.9 53 53 N 6 9 30.2 1023 10 16.0934 0 0
6:53 am 06:53 Sunny 43 6.1 23 -5 45 45 W 3 6 30.22 1023 10 16.0934 0 0
7:53 am 07:53 Sunny 49 9.4 24 -4.4 38 38 Calm 30.21 1023 10 16.0934 0 0
8:53 am 08:53 Sunny 53 11.7 22 -5.6 30 30 Calm 30.22 1023 10 16.0934 0 0
9:53 am 09:53 Sunny 55 12.8 23 -5 29 29 SSE 5 7 30.2 1023 10 16.0934 0 0
10:53 am 10:53 Sunny 58 14.4 24 -4.4 27 27 VRB 3 6 30.18 1022 10 16.0934 0 0
11:53 am 11:53 Sunny 63 17.2 21 -6.1 20 20 SE 3 6 30.13 1020 10 16.0934 0 0
12:53 pm 12:53 Sunny 64 17.8 22 -5.6 20 20 E 8 13 30.1 1019 10 16.0934 0 0
1:53 pm 13:53 Sunny 66 18.9 20 -6.7 17 17 ESE 3 6 30.06 1018 10 16.0934 0 0
2:53 pm 14:53 Sunny 68 20 20 -6.7 16 16 ESE 7 11 30.04 1017 10 16.0934 0 0
3:53 pm 15:53 Sunny 69 20.6 17 -8.3 14 14 SSE 9 15 30.01 1016 10 16.0934 0 0
4:53 pm 16:53 Sunny 68 20 20 -6.7 16 16 SE 13 20 30 1016 10 16.0934 0 0
5:53 pm 17:53 Clear 64 17.8 23 -5 21 21 ESE 5 7 30.01 1016 10 16.0934 0 0
6:53 pm 18:53 Clear 63 17.2 25 -3.9 24 24 E 5 7 30.01 1016 10 16.0934 0 0
7:53 pm 19:53 Clear 59 15 29 -1.7 32 32 NNW 3 6 30.02 1017 10 16.0934 0 0
8:53 pm 20:53 Clear 56 13.3 30 -1.1 37 37 N 5 7 30.01 1016 10 16.0934 0 0
9:53 pm 21:53 Clear 53 11.7 32 0 45 45 NNW 5 7 30.02 1017 10 16.0934 0 0
10:53 pm 22:53 Clear 52 11.1 32 0 47 47 NW 5 7 30.01 1016 10 16.0934 0 0
11:53 pm 23:53 Clear 49 9.4 32 0 52 52 NNW 3 6 30 1016 10 16.0934 0 0

Powered by AerisWeather